M I D A S
Marine Information and Data Acquisition System
Tripno 2149 of the Zeeleeuw from 2011-07-20 06:56:54 to 2011-07-20 15:44:48
Back to CruiseResearch ActivitiesStationsMapUnderway DataData graphs

EquipmentUnitsComment
TimeDGPSUTC
LatitudeDGPSDM.mWGS84
LongitudeDGPSDM.mWGS84
HeadingGyrodeg 
SOGDGPSknotsSpeed over ground
COGDGPSdegCourse over ground
DepthEcho soundermeters200 kHz
Missing or incorrect values are displayed as -999
Navigation data collected by the RV Zeeleeuw from 2011-07-20 06:46:38 to 2011-07-20 16:07:07
Time Latitude Longitude Heading SOG COG Depth
2011-07-20 06:47:42 51°13.635 2°56.019 127.9 0.1 167 5.8
2011-07-20 06:48:42 51°13.636 2°56.02 127.8 -999 88 5.8
2011-07-20 06:49:42 51°13.636 2°56.02 127.7 -999 124 5.8
2011-07-20 06:50:42 51°13.636 2°56.019 127.6 -999 26 5.8
2011-07-20 06:51:43 51°13.636 2°56.019 127.6 0.1 178 7.7
2011-07-20 06:52:43 51°13.636 2°56.019 127.4 -999 143 7.8
2011-07-20 06:53:43 51°13.637 2°56.019 127.3 -999 154 7.7
2011-07-20 06:54:43 51°13.636 2°56.019 127.2 -999 144 7.7
2011-07-20 06:55:43 51°13.636 2°56.019 127 -999 158 7.7
2011-07-20 06:56:43 51°13.637 2°56.022 126.9 -999 307 7.7
2011-07-20 06:57:43 51°13.636 2°56.019 126.4 -999 75 7.7
2011-07-20 06:58:43 51°13.636 2°56.019 125.7 -999 173 7.7
2011-07-20 06:59:43 51°13.635 2°56.019 119.1 0.1 186 7.6
2011-07-20 07:00:42 51°13.637 2°56.008 110.6 2 290 7.9
2011-07-20 07:01:46 51°13.667 2°55.905 113.4 4.6 292 -999
2011-07-20 07:02:46 51°13.701 2°55.805 126.4 4.4 306 -999
2011-07-20 07:03:46 51°13.757 2°55.704 136.9 5.5 317 -999
2011-07-20 07:04:46 51°13.838 2°55.622 157.7 5.8 338 -999
2011-07-20 07:05:46 51°13.924 2°55.598 183.8 4.7 2 -999
2011-07-20 07:06:45 51°13.967 2°55.61 212.5 0.4 349 11.8
2011-07-20 07:07:46 51°13.972 2°55.557 283.3 4.1 297 11.7
2011-07-20 07:08:46 51°14.056 2°55.465 333 7 335 11.7
2011-07-20 07:09:44 51°14.174 2°55.378 335.7 8.5 335 11.6
2011-07-20 07:10:43 51°14.302 2°55.258 325.8 9.7 326 11.5
2011-07-20 07:11:43 51°14.441 2°55.1 326 10.8 326 10.9
2011-07-20 07:12:43 51°14.592 2°54.905 317.6 12.6 314 12.1
2011-07-20 07:13:43 51°14.763 2°54.705 328.7 12.9 325 12
2011-07-20 07:14:42 51°14.937 2°54.51 331 12.8 331 12.3
2011-07-20 07:15:43 51°15.116 2°54.316 320.9 12.7 321 12.1
2011-07-20 07:16:43 51°15.282 2°54.105 323.8 12.7 322 12.2
2011-07-20 07:17:43 51°15.445 2°53.89 321.6 12.6 320 12.5
2011-07-20 07:18:42 51°15.615 2°53.701 331.6 12.6 329 12.6
2011-07-20 07:19:43 51°15.794 2°53.511 328.2 12.7 326 12.8
2011-07-20 07:20:43 51°15.986 2°53.381 342.8 12.5 340 11.8
2011-07-20 07:21:41 51°16.179 2°53.283 349.1 12.5 346 12.1
2011-07-20 07:22:43 51°16.39 2°53.206 348.9 12.6 346 12
2011-07-20 07:23:43 51°16.592 2°53.119 348.6 12.6 348 12
2011-07-20 07:24:43 51°16.797 2°53.069 353.5 12.5 351 11
2011-07-20 07:25:43 51°16.999 2°53.018 356.6 12.3 355 8.9
2011-07-20 07:26:42 51°17.2 2°53.049 13.4 12.4 12 9.6
2011-07-20 07:27:43 51°17.4 2°53.139 21.8 12.3 20 9.9
2011-07-20 07:28:43 51°17.588 2°53.266 25.2 12.2 23 10.1
2011-07-20 07:29:43 51°17.759 2°53.432 42.3 12.1 42 10.2
2011-07-20 07:30:42 51°17.893 2°53.663 54.2 12 53 10.4
2011-07-20 07:31:43 51°18.011 2°53.927 52.2 12 51 10
2011-07-20 07:32:43 51°18.135 2°54.176 56.9 12 56 10.1
2011-07-20 07:33:42 51°18.246 2°54.434 54.2 12 51 10.2
2011-07-20 07:34:43 51°18.377 2°54.681 52.2 12 52 10.4
2011-07-20 07:35:42 51°18.488 2°54.937 57.4 11.9 56 10.5
2011-07-20 07:36:42 51°18.606 2°55.194 51.9 12 48 10.7
2011-07-20 07:37:42 51°18.709 2°55.461 67.9 11.9 67 10.6
2011-07-20 07:38:42 51°18.788 2°55.749 67.9 11.9 65 10.4
2011-07-20 07:39:42 51°18.881 2°56.026 64.2 11.8 64 10.4
2011-07-20 07:40:42 51°18.962 2°56.311 64.6 11.9 62 10.4
2011-07-20 07:41:42 51°19.055 2°56.587 67.2 11.8 67 10.2
2011-07-20 07:42:42 51°19.138 2°56.87 65.1 11.8 64 10.1
2011-07-20 07:43:42 51°19.221 2°57.154 66.6 11.8 63 10
2011-07-20 07:44:43 51°19.322 2°57.43 61.9 11.8 60 9.9
2011-07-20 07:45:43 51°19.419 2°57.702 64 11.7 63 9.9
2011-07-20 07:46:42 51°19.497 2°57.982 67.7 11.7 65 9.8
2011-07-20 07:47:43 51°19.596 2°58.257 62.2 11.8 61 9.8
2011-07-20 07:48:42 51°19.676 2°58.535 69 11.7 67 9.6
2011-07-20 07:49:42 51°19.764 2°58.811 61.9 11.7 58 9.6
2011-07-20 07:50:43 51°19.859 2°59.086 68.1 11.6 66 9.6
2011-07-20 07:51:42 51°19.945 2°59.355 62.3 11.6 59 9.6
2011-07-20 07:52:43 51°20.028 2°59.639 70.1 11.6 66 9.6
2011-07-20 07:53:42 51°20.103 2°59.916 69.6 11.5 66 9.6
2011-07-20 07:54:42 51°20.187 3°0.191 66.6 11.6 63 9.4
2011-07-20 07:55:42 51°20.269 3°0.467 64.4 11.5 60 9.5
2011-07-20 07:56:42 51°20.366 3°0.73 64 11.4 61 9.6
2011-07-20 07:57:42 51°20.456 3°0.995 65.3 11.3 62 9.6
2011-07-20 07:58:43 51°20.53 3°1.275 71 11.3 67 9.4
2011-07-20 07:59:43 51°20.601 3°1.551 69.9 11.2 67 9.4
2011-07-20 08:00:42 51°20.678 3°1.811 64.3 10.1 53 9.6
2011-07-20 08:01:42 51°20.807 3°1.831 335.2 8.6 316 10
2011-07-20 08:02:42 51°20.802 3°1.603 234.1 9.6 231 10
2011-07-20 08:03:42 51°20.661 3°1.449 205.5 10.9 211 9.8
2011-07-20 08:04:42 51°20.511 3°1.291 206.9 10.7 212 9.5
2011-07-20 08:05:43 51°20.404 3°1.163 218.6 5.9 223 9.5
2011-07-20 08:06:42 51°20.35 3°1.063 227.2 4.9 234 9.4
2011-07-20 08:07:43 51°20.304 3°0.937 242.2 5.8 244 9.6
2011-07-20 08:08:42 51°20.256 3°0.772 243.3 8.7 245 9.2
2011-07-20 08:09:42 51°20.186 3°0.542 248.4 10 250 9.3
2011-07-20 08:10:43 51°20.177 3°0.279 289 9 289 9.5
2011-07-20 08:11:42 51°20.259 3°0.165 4.4 5.1 357 9.7
2011-07-20 08:12:42 51°20.293 3°0.249 93.9 5.4 96 9.7
2011-07-20 08:13:42 51°20.286 3°0.47 89.4 9.6 87 9.4
2011-07-20 08:14:42 51°20.344 3°0.715 62.2 10.6 58 9.3
2011-07-20 08:15:42 51°20.429 3°0.972 68.2 11.1 66 9.4
2011-07-20 08:16:42 51°20.505 3°1.24 70 11 69 9.4
2011-07-20 08:17:42 51°20.57 3°1.516 71.1 11.1 69 9.3
2011-07-20 08:18:43 51°20.657 3°1.782 65.4 11.2 61 9.1
2011-07-20 08:19:42 51°20.727 3°2.048 72.7 11 70 9.2
2011-07-20 08:20:42 51°20.796 3°2.308 64.8 8.5 59 9.7
2011-07-20 08:21:43 51°20.87 3°2.353 7.4 3.9 345 10.2
2011-07-20 08:22:42 51°20.918 3°2.354 50.1 2.8 36 10.2
2011-07-20 08:23:43 51°20.971 3°2.475 62.9 8.1 61 10.2
2011-07-20 08:24:42 51°21.02 3°2.703 83.8 9.7 86 10.2
2011-07-20 08:25:42 51°21.02 3°2.967 89.6 10 91 9.9
2011-07-20 08:26:43 51°21.023 3°3.236 87.9 9.9 89 9.8
2011-07-20 08:27:42 51°21.016 3°3.496 93 10 95 9.8
2011-07-20 08:28:43 51°21.002 3°3.765 92.9 10 95 9.5
2011-07-20 08:29:42 51°21.03 3°4.016 76.7 9.9 75 9.4
2011-07-20 08:30:42 51°21.064 3°4.273 81.4 10 82 9.4
2011-07-20 08:31:42 51°21.084 3°4.534 81.9 9.9 82 9.3
2011-07-20 08:32:43 51°21.12 3°4.793 78 9.9 77 9.3
2011-07-20 08:33:42 51°21.139 3°5.047 81.2 9.7 82 9.2
2011-07-20 08:34:43 51°21.171 3°5.304 79.9 9.7 82 9.2
2011-07-20 08:35:42 51°21.185 3°5.558 81.8 9.7 83 9.2
2011-07-20 08:36:42 51°21.216 3°5.81 77.2 9.7 78 9.2
2011-07-20 08:37:43 51°21.231 3°6.07 83.7 9.8 85 9.2
2011-07-20 08:38:42 51°21.253 3°6.317 77.1 9.4 79 9.2
2011-07-20 08:39:43 51°21.282 3°6.565 78.1 8.8 81 8.9
2011-07-20 08:40:42 51°21.327 3°6.654 27.6 3.6 356 9.4
2011-07-20 08:41:42 51°21.378 3°6.579 323.2 4.8 296 9.7
2011-07-20 08:42:43 51°21.386 3°6.434 254.9 6.1 254 9.7
2011-07-20 08:43:42 51°21.324 3°6.332 181.9 5.6 205 9.6
2011-07-20 08:44:42 51°21.218 3°6.268 186.2 6.7 203 9.2
2011-07-20 08:45:42 51°21.141 3°6.176 206.3 5.3 222 8.7
2011-07-20 08:46:42 51°21.078 3°6.09 203.3 4.7 219 8.5
2011-07-20 08:47:42 51°21.021 3°6.013 205.5 4.4 221 8.3
2011-07-20 08:48:42 51°20.968 3°5.934 210.3 4.3 225 8.2
2011-07-20 08:49:42 51°20.919 3°5.853 217.8 4.2 227 8
2011-07-20 08:50:42 51°20.875 3°5.767 228.1 4.2 233 7.9
2011-07-20 08:51:42 51°20.848 3°5.656 269.7 4.6 260 7.9
2011-07-20 08:52:42 51°20.848 3°5.529 290.4 4.7 274 5.9
2011-07-20 08:53:43 51°20.863 3°5.408 305.8 4.5 286 8.2
2011-07-20 08:54:43 51°20.891 3°5.294 318 4.5 296 8.3
2011-07-20 08:55:43 51°20.929 3°5.196 331.1 4.3 306 8.4
2011-07-20 08:56:42 51°20.973 3°5.117 343.8 4 317 8.6
2011-07-20 08:57:43 51°21.026 3°5.051 356.3 3.7 328 8.8
2011-07-20 08:58:43 51°21.081 3°5.007 8.7 3.6 340 9
2011-07-20 08:59:42 51°21.134 3°4.989 21.5 3.3 354 9.3
2011-07-20 09:00:42 51°21.186 3°4.993 34 3 11 9.5
2011-07-20 09:01:42 51°21.232 3°5.014 40.7 2.8 20 9.7
2011-07-20 09:02:43 51°21.276 3°5.041 45.4 2.8 26 9.7
2011-07-20 09:03:42 51°21.317 3°5.072 45.1 2.8 25 9.8
2011-07-20 09:04:44 51°21.366 3°5.095 38.4 3 15 9.9
2011-07-20 09:05:42 51°21.415 3°5.11 39 3 16 9.8
2011-07-20 09:06:43 51°21.464 3°5.134 42.9 3 21 9.8
2011-07-20 09:07:43 51°21.509 3°5.167 47.2 2.9 28 10.1
2011-07-20 09:08:43 51°21.551 3°5.206 50.4 2.9 33 10.1
2011-07-20 09:09:43 51°21.59 3°5.25 55.3 2.8 43 10.3
2011-07-20 09:10:43 51°21.624 3°5.299 58.2 2.8 48 10.4
2011-07-20 09:11:42 51°21.654 3°5.353 63 2.8 55 10.4
2011-07-20 09:12:43 51°21.685 3°5.403 68.3 2.8 61 10.5
2011-07-20 09:13:43 51°21.702 3°5.47 74 2.7 72 10.5
2011-07-20 09:14:43 51°21.711 3°5.542 80.3 2.7 83 10.6
2011-07-20 09:15:43 51°21.709 3°5.614 88.8 2.8 100 10.5
2011-07-20 09:16:43 51°21.694 3°5.687 99.4 2.9 114 10.4
2011-07-20 09:17:43 51°21.663 3°5.754 111.1 3.3 135 10.3
2011-07-20 09:18:43 51°21.618 3°5.811 125.5 3.6 148 10.1
2011-07-20 09:19:43 51°21.555 3°5.84 147.3 4.2 175 10
2011-07-20 09:20:43 51°21.48 3°5.824 170.6 4.8 196 9.8
2011-07-20 09:21:42 51°21.404 3°5.775 191.1 5.3 210 9.5
2011-07-20 09:22:43 51°21.333 3°5.679 220.3 5.8 231 9.4
2011-07-20 09:23:43 51°21.284 3°5.559 240.1 4.9 242 9.3
2011-07-20 09:24:43 51°21.251 3°5.455 245.1 4 245 9.3
2011-07-20 09:25:43 51°21.223 3°5.369 242.5 3.4 242 9.3
2011-07-20 09:26:43 51°21.198 3°5.294 240.3 3.1 243 9.2
2011-07-20 09:27:43 51°21.174 3°5.226 237.4 2.8 241 9.3
2011-07-20 09:28:43 51°21.151 3°5.162 236.5 2.7 241 9.2
2011-07-20 09:29:43 51°21.127 3°5.09 246.8 3.7 245 8.9
2011-07-20 09:30:43 51°21.127 3°4.967 312.9 4.8 291 9.2
2011-07-20 09:31:43 51°21.172 3°4.911 30.6 2.5 2 9.4
2011-07-20 09:32:43 51°21.197 3°4.963 68.5 3.3 65 9.4
2011-07-20 09:33:43 51°21.225 3°5.076 72 5.3 74 9.3
2011-07-20 09:34:43 51°21.24 3°5.226 80.1 5.8 83 9.3
2011-07-20 09:35:43 51°21.252 3°5.381 77.9 5.9 83 9.3
2011-07-20 09:36:43 51°21.266 3°5.536 75.6 5.8 77 9.1
2011-07-20 09:37:43 51°21.287 3°5.689 73.4 5.9 78 9.1
2011-07-20 09:38:43 51°21.301 3°5.847 78.5 6.1 85 9.1
2011-07-20 09:39:43 51°21.302 3°6.01 85.5 6.2 95 9.2
2011-07-20 09:40:43 51°21.29 3°6.148 87.9 4.5 96 9.1
2011-07-20 09:41:42 51°21.281 3°6.258 83.9 4 96 9.2
2011-07-20 09:42:43 51°21.276 3°6.363 83.6 3.8 94 9
2011-07-20 09:43:43 51°21.267 3°6.464 85.7 3.8 98 9
2011-07-20 09:44:43 51°21.255 3°6.565 87.2 3.9 99 8.8
2011-07-20 09:45:42 51°21.243 3°6.666 85.7 3.8 98 8.7
2011-07-20 09:46:43 51°21.235 3°6.77 83.7 3.9 94 8.6
2011-07-20 09:47:43 51°21.229 3°6.873 83.5 4 94 8.4
2011-07-20 09:48:43 51°21.222 3°6.979 86.1 4 97 6.1
2011-07-20 09:49:43 51°21.209 3°7.085 87.9 4 99 8
2011-07-20 09:50:43 51°21.209 3°7.186 74 3.7 81 8.1
2011-07-20 09:51:43 51°21.221 3°7.284 71.9 3.8 76 5.9
2011-07-20 09:52:43 51°21.232 3°7.386 73.9 3.9 81 8.1
2011-07-20 09:53:43 51°21.245 3°7.49 73.7 4 79 8.1
2011-07-20 09:54:43 51°21.253 3°7.597 78 4.1 84 8
2011-07-20 09:55:43 51°21.258 3°7.707 77.7 4.1 86 7.9
2011-07-20 09:56:43 51°21.264 3°7.814 74.8 4 83 5.9
2011-07-20 09:57:43 51°21.274 3°7.917 72.3 3.9 82 8
2011-07-20 09:58:43 51°21.284 3°8.021 74.8 3.9 82 8
2011-07-20 09:59:43 51°21.29 3°8.126 76.6 4 85 7.9
2011-07-20 10:00:43 51°21.294 3°8.232 77.6 4.1 89 8.2
2011-07-20 10:01:42 51°21.299 3°8.337 75.6 4 85 8.2
2011-07-20 10:02:43 51°21.306 3°8.442 72.3 3.9 83 8.2
2011-07-20 10:03:42 51°21.318 3°8.538 66.1 3.6 69 8.2
2011-07-20 10:04:43 51°21.353 3°8.612 46.2 3.5 42 8.4
2011-07-20 10:05:43 51°21.401 3°8.669 42.3 3.6 34 8.6
2011-07-20 10:06:43 51°21.459 3°8.697 19.1 3.8 2 8.9
2011-07-20 10:07:43 51°21.527 3°8.687 9.3 4.3 352 9.2
2011-07-20 10:08:43 51°21.597 3°8.668 7.9 4.4 350 9.4
2011-07-20 10:09:43 51°21.67 3°8.639 357.3 4.7 337 10
2011-07-20 10:10:43 51°21.734 3°8.561 331.3 5.2 311 10.4
2011-07-20 10:11:43 51°21.762 3°8.422 284.3 5.9 271 10.5
2011-07-20 10:12:42 51°21.734 3°8.271 244.5 6.1 244 10.3
2011-07-20 10:13:43 51°21.69 3°8.137 245.5 5.2 242 10.3
2011-07-20 10:14:43 51°21.655 3°8.023 250.1 4.5 245 10.1
2011-07-20 10:15:43 51°21.626 3°7.919 252.1 4.2 245 9.9
2011-07-20 10:16:43 51°21.597 3°7.82 250 4 245 9.6
2011-07-20 10:17:43 51°21.567 3°7.725 248.3 3.9 243 9.6
2011-07-20 10:18:43 51°21.535 3°7.634 246.4 3.9 241 9.6
2011-07-20 10:19:43 51°21.504 3°7.545 245.1 3.8 238 9.5
2011-07-20 10:20:43 51°21.472 3°7.458 245.6 3.7 239 9.4
2011-07-20 10:21:42 51°21.441 3°7.374 246.1 3.7 239 9.4
2011-07-20 10:22:43 51°21.409 3°7.274 254.9 5.1 251 9.3
2011-07-20 10:23:43 51°21.419 3°7.084 295.2 9.6 287 9.3
2011-07-20 10:24:43 51°21.495 3°6.833 307.1 11 298 9.8
2011-07-20 10:25:43 51°21.595 3°6.591 316.1 10.7 310 10.2
2011-07-20 10:26:43 51°21.718 3°6.388 324.8 10.5 318 10.6
2011-07-20 10:27:43 51°21.867 3°6.271 355.6 9.6 350 10.8
2011-07-20 10:28:43 51°21.996 3°6.299 31.4 5.1 22 11.1
2011-07-20 10:29:43 51°22.062 3°6.346 28.3 5.2 15 11.3
2011-07-20 10:30:42 51°22.2 3°6.368 11.6 10.8 4 11.3
2011-07-20 10:31:43 51°22.385 3°6.41 20.8 11.2 15 11.7
2011-07-20 10:32:43 51°22.559 3°6.513 25.3 11.2 21 11.8
2011-07-20 10:33:43 51°22.733 3°6.616 21.9 11.2 17 11.7
2011-07-20 10:34:43 51°22.91 3°6.714 23.2 11.2 18 11.3
2011-07-20 10:35:43 51°23.079 3°6.828 28.2 11 22 11
2011-07-20 10:36:43 51°23.263 3°6.858 2 11.6 354 11.7
2011-07-20 10:37:43 51°23.457 3°6.81 357.9 12 351 12.3
2011-07-20 10:38:43 51°23.655 3°6.761 358.5 12.2 351 14.7
2011-07-20 10:39:43 51°23.858 3°6.73 3.1 12.3 358 18.8
2011-07-20 10:40:43 51°24.064 3°6.698 0.7 12.5 355 18.5
2011-07-20 10:41:43 51°24.268 3°6.691 1.2 12 357 13.6
2011-07-20 10:42:43 51°24.445 3°6.665 359.1 8.1 356 12
2011-07-20 10:43:43 51°24.541 3°6.695 26.9 4.9 27 11.8
2011-07-20 10:44:43 51°24.598 3°6.779 50.9 4.9 57 11.6
2011-07-20 10:45:43 51°24.623 3°6.911 75.7 5.5 87 11.1
2011-07-20 10:46:43 51°24.615 3°7.061 88.7 5.8 98 11.2
2011-07-20 10:47:43 51°24.605 3°7.215 87.5 5.9 97 11.2
2011-07-20 10:48:43 51°24.594 3°7.37 87.7 5.9 96 11.1
2011-07-20 10:49:43 51°24.581 3°7.526 89.6 5.9 97 10.9
2011-07-20 10:50:43 51°24.566 3°7.682 91.1 5.9 100 10.8
2011-07-20 10:51:43 51°24.548 3°7.838 92.2 5.9 98 10.7
2011-07-20 10:52:43 51°24.542 3°7.992 83.6 5.7 90 10.6
2011-07-20 10:53:43 51°24.544 3°8.145 82.3 5.8 91 10.6
2011-07-20 10:54:43 51°24.543 3°8.299 85.9 5.8 91 10.5
2011-07-20 10:55:43 51°24.536 3°8.454 87.7 5.9 94 10.4
2011-07-20 10:56:43 51°24.531 3°8.609 86.1 5.8 90 10.3
2011-07-20 10:57:43 51°24.53 3°8.762 83.1 5.7 87 10.3
2011-07-20 10:58:43 51°24.53 3°8.914 84.1 5.7 92 10.6
2011-07-20 10:59:43 51°24.527 3°9.066 86.5 5.8 95 10.7
2011-07-20 11:00:43 51°24.519 3°9.216 87.5 5.7 96 10.8
2011-07-20 11:01:43 51°24.517 3°9.364 83.3 5.5 90 10.9
2011-07-20 11:02:43 51°24.517 3°9.51 83.2 5.5 90 11
2011-07-20 11:03:43 51°24.514 3°9.657 86.7 5.6 94 11.2
2011-07-20 11:04:42 51°24.507 3°9.801 87.2 5.4 93 11.3
2011-07-20 11:05:43 51°24.505 3°9.947 82.8 5.3 88 11.6
2011-07-20 11:06:43 51°24.536 3°10.052 37.9 4.2 27 11.2
2011-07-20 11:07:43 51°24.604 3°10.026 334.7 4.8 317 10.6
2011-07-20 11:08:43 51°24.627 3°9.89 280.9 6 270 10.2
2011-07-20 11:09:43 51°24.623 3°9.718 277.3 6.7 268 10.1
2011-07-20 11:10:43 51°24.623 3°9.538 279.7 6.8 271 9.9
2011-07-20 11:11:43 51°24.626 3°9.363 281.5 6.1 272 9.9
2011-07-20 11:12:43 51°24.63 3°9.216 282.9 5.3 272 9.8
2011-07-20 11:13:43 51°24.631 3°9.08 279.5 5.1 269 9.6
2011-07-20 11:14:42 51°24.627 3°8.948 277.5 5 268 9.8
2011-07-20 11:15:41 51°24.624 3°8.821 279.7 4.9 269 10
2011-07-20 11:16:43 51°24.625 3°8.688 282 4.8 272 10
2011-07-20 11:17:43 51°24.627 3°8.56 282.4 4.8 271 10.1
2011-07-20 11:18:43 51°24.626 3°8.431 278.9 4.9 268 10.2
2011-07-20 11:19:43 51°24.621 3°8.301 277.4 4.9 266 10.4
2011-07-20 11:20:41 51°24.618 3°8.173 280.1 5.3 270 10.5
2011-07-20 11:21:42 51°24.639 3°8.015 300.6 7.4 294 10.6
2011-07-20 11:22:43 51°24.756 3°7.835 335 11.2 329 10.1
2011-07-20 11:23:43 51°24.922 3°7.679 336.4 11.7 330 9.3
2011-07-20 11:24:42 51°25.098 3°7.615 1.3 10.9 358 8.3
2011-07-20 11:25:43 51°25.286 3°7.605 0.2 11.2 353 8.7
2011-07-20 11:26:43 51°25.47 3°7.56 358.2 11.2 352 9
2011-07-20 11:27:43 51°25.656 3°7.549 4.7 11.2 -999 9.4
2011-07-20 11:28:43 51°25.841 3°7.517 357.9 11.2 352 9.3
2011-07-20 11:29:42 51°26.021 3°7.505 4.8 10.9 359 8.5
2011-07-20 11:30:43 51°26.206 3°7.496 1.7 10.8 354 8.5
2011-07-20 11:31:41 51°26.381 3°7.456 358.5 11.2 351 9.7
2011-07-20 11:32:42 51°26.568 3°7.425 4.2 11 359 10.8
2011-07-20 11:33:43 51°26.755 3°7.404 358.8 11.1 351 10.9
2011-07-20 11:34:43 51°26.939 3°7.372 1.1 11.2 357 11.5
2011-07-20 11:35:43 51°27.124 3°7.376 11.3 10.9 11 11.8
2011-07-20 11:36:43 51°27.298 3°7.451 14 11 10 12.2
2011-07-20 11:37:43 51°27.481 3°7.475 7.8 11 4 12.4
2011-07-20 11:38:42 51°27.624 3°7.492 9.8 6.6 5 12.9
2011-07-20 11:39:43 51°27.741 3°7.517 12.8 8.8 9 13.4
2011-07-20 11:40:41 51°27.857 3°7.563 38.8 4.7 48 13.5
2011-07-20 11:41:42 51°27.849 3°7.656 111.3 3.9 139 13.4
2011-07-20 11:42:43 51°27.796 3°7.687 142.3 3.2 168 13.1
2011-07-20 11:43:43 51°27.738 3°7.698 161.8 5.1 177 12.9
2011-07-20 11:44:43 51°27.622 3°7.663 195.4 7.4 199 12.7
2011-07-20 11:45:43 51°27.516 3°7.585 214.9 6.2 215 12.5
2011-07-20 11:46:43 51°27.442 3°7.491 222.9 5.5 218 12.6
2011-07-20 11:47:42 51°27.372 3°7.412 216.4 4.9 212 12.6
2011-07-20 11:48:43 51°27.308 3°7.343 222.6 4.4 216 12.5
2011-07-20 11:49:41 51°27.255 3°7.274 231.6 4.1 221 12.6
2011-07-20 11:50:42 51°27.205 3°7.197 240.9 4 228 12.4
2011-07-20 11:51:41 51°27.164 3°7.118 248.5 3.9 232 12.6
2011-07-20 11:52:43 51°27.123 3°7.034 248.2 3.9 231 12.6
2011-07-20 11:53:42 51°27.083 3°6.954 245.3 3.9 230 12.7
2011-07-20 11:54:43 51°27.039 3°6.874 244.2 3.9 229 12.7
2011-07-20 11:55:43 51°26.995 3°6.795 242.6 4 227 12.5
2011-07-20 11:56:42 51°26.951 3°6.718 241.8 3.9 228 12.5
2011-07-20 11:57:43 51°26.905 3°6.641 239 4 225 12.4
2011-07-20 11:58:42 51°26.859 3°6.564 237.9 4 225 12.4
2011-07-20 11:59:43 51°26.817 3°6.477 261.6 4.2 244 12.2
2011-07-20 12:00:42 51°26.81 3°6.371 304.8 3.8 281 12.1
2011-07-20 12:01:42 51°26.834 3°6.279 327.4 3.7 304 12.3
2011-07-20 12:02:43 51°26.875 3°6.215 349 2.9 327 12.2
2011-07-20 12:03:42 51°26.914 3°6.2 10.9 2.4 356 12.3
2011-07-20 12:04:43 51°26.953 3°6.207 14.7 2.4 7 12.6
2011-07-20 12:05:42 51°26.993 3°6.212 10.8 2.7 1 12.8
2011-07-20 12:06:43 51°27.04 3°6.213 11.2 2.8 4 12.9
2011-07-20 12:07:43 51°27.084 3°6.237 33.4 2.8 35 13.3
2011-07-20 12:08:43 51°27.113 3°6.3 52.7 3.1 64 13.4
2011-07-20 12:09:43 51°27.138 3°6.373 49.7 3.1 61 13.5
2011-07-20 12:10:43 51°27.165 3°6.443 48.2 3.2 60 13.5
2011-07-20 12:11:43 51°27.192 3°6.516 49.5 3.2 61 13.6
2011-07-20 12:12:42 51°27.217 3°6.59 52.7 3.3 65 13.5
2011-07-20 12:13:43 51°27.241 3°6.67 52.2 3.3 65 13.5
2011-07-20 12:14:41 51°27.265 3°6.746 50.1 3.4 62 13.4
2011-07-20 12:15:43 51°27.294 3°6.823 47.9 3.3 59 13.6
2011-07-20 12:16:41 51°27.32 3°6.896 49.4 3.3 62 13.5
2011-07-20 12:17:43 51°27.347 3°6.974 49.5 3.3 61 13.4
2011-07-20 12:18:41 51°27.373 3°7.052 50.7 3.4 62 13.4
2011-07-20 12:19:43 51°27.399 3°7.136 53.2 3.3 66 13.3
2011-07-20 12:20:42 51°27.421 3°7.216 56.4 3.4 73 13.2
2011-07-20 12:21:43 51°27.417 3°7.314 85.5 3.9 107 13.3
2011-07-20 12:22:43 51°27.394 3°7.41 97.3 4.1 119 12.8
2011-07-20 12:23:42 51°27.347 3°7.498 118.8 4.6 138 12.6
2011-07-20 12:24:43 51°27.285 3°7.575 131.2 4.6 147 12.2
2011-07-20 12:25:42 51°27.218 3°7.615 152.5 4.4 164 12
2011-07-20 12:26:43 51°27.142 3°7.625 174.6 4.5 181 11.9
2011-07-20 12:27:42 51°27.077 3°7.609 189.1 3.6 190 12
2011-07-20 12:28:42 51°27.025 3°7.587 199.8 3 197 12
2011-07-20 12:29:43 51°26.981 3°7.562 207.2 2.6 200 12
2011-07-20 12:30:42 51°26.927 3°7.598 213.2 2.3 190 11.8
2011-07-20 12:31:42 51°26.893 3°7.589 218.9 2.2 184 12
2011-07-20 12:32:42 51°26.863 3°7.555 224.2 2.5 203 11.9
2011-07-20 12:33:42 51°26.846 3°7.414 284.2 4.1 264 11.8
2011-07-20 12:34:41 51°26.847 3°7.295 292.3 4.4 273 11.9
2011-07-20 12:35:42 51°26.845 3°7.191 292.6 3.8 270 12.2
2011-07-20 12:36:41 51°26.843 3°7.096 291.5 3.5 265 12.1
2011-07-20 12:37:42 51°26.838 3°7.003 290.4 3.4 264 12.3
2011-07-20 12:38:43 51°26.833 3°6.914 292.3 3.3 265 12.4
2011-07-20 12:39:42 51°26.83 3°6.831 295.8 3.1 269 12.3
2011-07-20 12:40:42 51°26.828 3°6.746 293.3 3.2 266 12.4
2011-07-20 12:41:43 51°26.823 3°6.658 290.4 3.3 264 12.4
2011-07-20 12:42:42 51°26.815 3°6.572 289.6 3.3 262 12.5
2011-07-20 12:43:41 51°26.81 3°6.488 292.9 3.2 265 12.5
2011-07-20 12:44:42 51°26.807 3°6.403 295.5 3.2 268 12.6
2011-07-20 12:45:43 51°26.803 3°6.316 291.3 3.2 263 12.5
2011-07-20 12:46:43 51°26.795 3°6.23 289.6 3.3 262 12.4
2011-07-20 12:47:43 51°26.789 3°6.144 292.6 3.2 265 12.7
2011-07-20 12:48:43 51°26.785 3°6.059 295.4 3.1 268 12.4
2011-07-20 12:49:43 51°26.782 3°5.974 293.6 3.2 266 12.4
2011-07-20 12:50:43 51°26.777 3°5.888 291.1 3.3 264 12.4
2011-07-20 12:51:43 51°26.769 3°5.802 289.5 3.3 262 12.1
2011-07-20 12:52:42 51°26.763 3°5.716 291.1 3.3 263 12.3
2011-07-20 12:53:43 51°26.761 3°5.633 303.5 2.9 272 12.6
2011-07-20 12:54:42 51°26.77 3°5.569 323.1 2.3 293 12.6
2011-07-20 12:55:43 51°26.793 3°5.536 0.7 1.6 350 12.6
2011-07-20 12:56:42 51°26.814 3°5.559 43.9 2.1 66 13
2011-07-20 12:57:43 51°26.817 3°5.634 71 3.4 89 12.9
2011-07-20 12:58:42 51°26.824 3°5.734 64 4.1 79 12.2
2011-07-20 12:59:43 51°26.84 3°5.845 64.4 4.1 77 12.4
2011-07-20 13:00:43 51°26.851 3°5.951 66.5 3.9 82 12.7
2011-07-20 13:01:42 51°26.86 3°6.054 66.6 3.9 82 12.6
2011-07-20 13:02:43 51°26.868 3°6.16 68.1 4 85 12.9
2011-07-20 13:03:42 51°26.874 3°6.264 69.6 4 86 12.8
2011-07-20 13:04:43 51°26.881 3°6.371 67.9 4 84 13
2011-07-20 13:05:43 51°26.89 3°6.475 66.1 4 82 12.9
2011-07-20 13:06:43 51°26.901 3°6.578 64.9 3.9 79 12.9
2011-07-20 13:07:43 51°26.912 3°6.682 66.2 4 82 13.1
2011-07-20 13:08:43 51°26.921 3°6.788 68.9 4.1 82 12.8
2011-07-20 13:09:43 51°26.927 3°6.896 70 4.1 85 12.9
2011-07-20 13:10:41 51°26.935 3°7.001 67 4 81 12.8
2011-07-20 13:11:43 51°26.947 3°7.109 64.6 4 79 12.8
2011-07-20 13:12:41 51°26.959 3°7.212 66.6 4.1 81 12.8
2011-07-20 13:13:43 51°26.968 3°7.326 70.2 4.2 84 12.6
2011-07-20 13:14:43 51°26.975 3°7.436 69 4.1 85 12.4
2011-07-20 13:15:42 51°26.984 3°7.544 66.3 4.1 78 12.2
2011-07-20 13:16:43 51°27.011 3°7.622 29.7 2.8 36 12.2
2011-07-20 13:17:42 51°27.051 3°7.626 345.6 2.6 333 12.4
2011-07-20 13:18:43 51°27.079 3°7.563 307.3 3.3 287 12.5
2011-07-20 13:19:41 51°27.084 3°7.467 287.7 4.1 271 12.6
2011-07-20 13:20:42 51°27.083 3°7.348 283.6 4.6 269 12.7
2011-07-20 13:21:43 51°27.079 3°7.222 281.9 4.7 267 13.2
2011-07-20 13:22:42 51°27.075 3°7.098 281.7 4.8 267 13.2
2011-07-20 13:23:43 51°27.073 3°6.969 284.2 4.7 270 13.4
2011-07-20 13:24:42 51°27.074 3°6.846 285.8 4.7 272 13.4
2011-07-20 13:25:43 51°27.075 3°6.719 283.2 4.7 269 13.5
2011-07-20 13:26:42 51°27.071 3°6.594 280.6 4.8 267 13.7
2011-07-20 13:27:43 51°27.067 3°6.464 282.6 4.7 269 13.9
2011-07-20 13:28:43 51°27.066 3°6.338 285.2 4.7 271 13.9
2011-07-20 13:29:42 51°27.067 3°6.216 284.2 4.7 270 13.8
2011-07-20 13:30:43 51°27.067 3°6.087 284.4 4.7 271 13.9
2011-07-20 13:31:42 51°27.093 3°6.003 335.7 2.9 327 14
2011-07-20 13:32:43 51°27.132 3°6.015 34.1 2.6 48 14
2011-07-20 13:33:43 51°27.137 3°6.097 80.7 3.7 95 14.1
2011-07-20 13:34:43 51°27.134 3°6.206 75.4 4.3 89 14.2
2011-07-20 13:35:43 51°27.14 3°6.321 71.9 4.5 84 14.1
2011-07-20 13:36:43 51°27.144 3°6.445 75.6 4.7 88 14.3
2011-07-20 13:37:43 51°27.147 3°6.57 76.4 4.8 90 14.3
2011-07-20 13:38:43 51°27.147 3°6.697 78.5 4.8 90 14
2011-07-20 13:39:42 51°27.159 3°6.842 62.5 6.9 64 14
2011-07-20 13:40:43 51°27.26 3°6.937 4.9 7.3 359 14.2
2011-07-20 13:41:43 51°27.356 3°6.819 305.2 8.4 299 14.8
2011-07-20 13:42:43 51°27.443 3°6.568 299.8 12 294 15.1
2011-07-20 13:43:42 51°27.521 3°6.276 298.4 12.1 294 15.2
2011-07-20 13:44:43 51°27.613 3°5.982 300.1 12.2 296 15.3
2011-07-20 13:45:42 51°27.715 3°5.708 310 12.2 306 16
2011-07-20 13:46:43 51°27.83 3°5.435 305.2 12.2 300 16.7
2011-07-20 13:47:42 51°27.94 3°5.169 310.1 12.2 306 16
2011-07-20 13:48:43 51°28.049 3°4.89 306 12.2 303 16.6
2011-07-20 13:49:43 51°28.166 3°4.623 309.6 12.3 305 18.6
2011-07-20 13:50:43 51°28.274 3°4.344 304.2 12.5 301 20.5
2011-07-20 13:51:43 51°28.39 3°4.067 310.3 12.5 306 22.2
2011-07-20 13:52:43 51°28.504 3°3.785 304.8 12.7 302 23.6
2011-07-20 13:53:42 51°28.621 3°3.51 309.8 12.7 306 24.6
2011-07-20 13:54:43 51°28.74 3°3.225 304.6 12.8 301 24.6
2011-07-20 13:55:41 51°28.854 3°2.953 310.5 12.7 307 24.7
2011-07-20 13:56:42 51°28.973 3°2.666 304.5 12.7 301 24.1
2011-07-20 13:57:43 51°29.095 3°2.387 311 12.5 307 24
2011-07-20 13:58:43 51°29.209 3°2.109 305.2 12.5 302 24.3
2011-07-20 13:59:43 51°29.304 3°1.812 293.6 12.7 291 25.2
2011-07-20 14:00:43 51°29.381 3°1.497 294 12.6 293 27.1
2011-07-20 14:01:43 51°29.448 3°1.277 299.8 6.9 297 28.8
2011-07-20 14:02:42 51°29.472 3°1.139 276.2 4.5 273 29.4
2011-07-20 14:03:43 51°29.464 3°1.031 259.2 3.8 256 29.5
2011-07-20 14:04:43 51°29.447 3°0.939 254.1 3.5 252 29.8
2011-07-20 14:05:42 51°29.432 3°0.853 257.7 3.4 257 29.6
2011-07-20 14:06:43 51°29.419 3°0.765 259.3 3.4 256 29.9
2011-07-20 14:07:43 51°29.407 3°0.679 261.6 3.3 259 30
2011-07-20 14:08:43 51°29.397 3°0.593 262.1 3.3 259 30.2
2011-07-20 14:09:43 51°29.387 3°0.507 259.6 3.3 259 30.3
2011-07-20 14:10:43 51°29.374 3°0.423 257.1 3.2 255 30.6
2011-07-20 14:11:42 51°29.361 3°0.341 257.7 3.2 257 31.1
2011-07-20 14:12:43 51°29.347 3°0.255 259.2 3.2 259 31.3
2011-07-20 14:13:43 51°29.339 3°0.17 263.2 3.2 262 31.5
2011-07-20 14:14:42 51°29.328 3°0.088 254.2 3.2 254 31.8
2011-07-20 14:15:43 51°29.306 3°0.011 238.9 3.1 239 31.6
2011-07-20 14:16:43 51°29.275 2°59.943 231.2 3.2 231 32
2011-07-20 14:17:43 51°29.242 2°59.877 232.4 3.2 232 31.8
2011-07-20 14:18:43 51°29.211 2°59.81 234.6 3.2 235 31.6
2011-07-20 14:19:43 51°29.181 2°59.741 237.6 3.2 236 32.4
2011-07-20 14:20:42 51°29.153 2°59.671 238 3.2 236 32.2
2011-07-20 14:21:43 51°29.124 2°59.6 236.2 3.2 235 31.9
2011-07-20 14:22:42 51°29.093 2°59.534 232.9 3.1 232 31.3
2011-07-20 14:23:42 51°29.062 2°59.469 233.1 3.1 234 31.5
2011-07-20 14:24:43 51°29.03 2°59.402 234.5 3.1 234 30.6
2011-07-20 14:25:43 51°28.999 2°59.336 235.7 3.1 234 30.8
2011-07-20 14:26:43 51°28.972 2°59.269 238.3 3 237 31.4
2011-07-20 14:27:43 51°28.944 2°59.202 236.9 3 235 31.7
2011-07-20 14:28:43 51°28.916 2°59.136 235.2 3 234 30.6
2011-07-20 14:29:42 51°28.887 2°59.075 232.2 3 231 31.7
2011-07-20 14:30:43 51°28.857 2°59.012 233.8 2.9 233 32.1
2011-07-20 14:31:42 51°28.829 2°58.95 235 2.9 233 32.7
2011-07-20 14:32:43 51°28.803 2°58.884 237.7 2.9 239 33
2011-07-20 14:33:43 51°28.778 2°58.819 237.3 2.9 238 33.2
2011-07-20 14:34:42 51°28.752 2°58.758 234.5 2.8 234 33.4
2011-07-20 14:35:43 51°28.724 2°58.697 232.5 2.8 232 33.4
2011-07-20 14:36:43 51°28.697 2°58.637 234.2 2.7 233 33.6
2011-07-20 14:37:43 51°28.671 2°58.57 237.4 3.9 238 33.4
2011-07-20 14:38:43 51°28.605 2°58.454 218.2 7.6 217 33.5
2011-07-20 14:39:43 51°28.466 2°58.328 209.4 11.3 210 33.2
2011-07-20 14:40:42 51°28.297 2°58.174 212 12.1 210 32.4
2011-07-20 14:41:43 51°28.113 2°58.037 203.4 12 200 30.3
2011-07-20 14:42:43 51°27.929 2°57.907 207.8 12.2 208 30
2011-07-20 14:43:42 51°27.75 2°57.775 203 12.1 199 28.9
2011-07-20 14:44:43 51°27.554 2°57.679 200.2 12 198 28.3
2011-07-20 14:45:43 51°27.368 2°57.558 205.5 12 203 26.8
2011-07-20 14:46:43 51°27.18 2°57.446 199.4 12 196 25.6
2011-07-20 14:47:43 51°26.986 2°57.349 202.6 12.1 199 22.6
2011-07-20 14:48:43 51°26.796 2°57.246 199.8 12.2 197 21.5
2011-07-20 14:49:42 51°26.605 2°57.155 200 12.2 197 19.9
2011-07-20 14:50:43 51°26.414 2°57.037 204.2 12 203 18.8
2011-07-20 14:51:43 51°26.222 2°56.936 199.6 12.1 197 19.5
2011-07-20 14:52:42 51°26.031 2°56.847 201.1 12 199 19.4
2011-07-20 14:53:43 51°25.84 2°56.729 203.3 12 199 19.3
2011-07-20 14:54:43 51°25.651 2°56.621 199.8 11.9 199 20.3
2011-07-20 14:55:42 51°25.465 2°56.524 200.4 11.9 199 22.9
2011-07-20 14:56:43 51°25.274 2°56.412 203.6 12.1 200 25.5
2011-07-20 14:57:43 51°25.084 2°56.313 200.1 12.1 196 26.6
2011-07-20 14:58:42 51°24.899 2°56.217 204.3 11.6 200 28.1
2011-07-20 14:59:43 51°24.711 2°56.108 199.7 11.8 198 25.7
2011-07-20 15:00:43 51°24.525 2°56.009 202.9 11.7 200 25.1
2011-07-20 15:01:42 51°24.345 2°55.898 200.5 11.8 198 26.2
2011-07-20 15:02:43 51°24.154 2°55.808 200.9 11.7 198 24.9
2011-07-20 15:03:43 51°23.97 2°55.717 196.1 11.7 195 22.6
2011-07-20 15:04:42 51°23.788 2°55.627 202.3 11.7 201 21.7
2011-07-20 15:05:43 51°23.605 2°55.516 202.2 11.7 199 19.9
2011-07-20 15:06:43 51°23.421 2°55.423 200.4 11.5 199 20.3
2011-07-20 15:07:42 51°23.24 2°55.329 200.6 11.8 198 21.7
2011-07-20 15:08:43 51°23.054 2°55.232 202.9 11.6 199 21.9
2011-07-20 15:09:43 51°22.872 2°55.126 202.6 11.6 198 22
2011-07-20 15:10:42 51°22.688 2°55.038 199.3 11.9 198 22.4
2011-07-20 15:11:43 51°22.503 2°54.938 201.1 11.5 199 21.5
2011-07-20 15:12:41 51°22.329 2°54.848 201.1 11.4 200 21.4
2011-07-20 15:13:42 51°22.147 2°54.741 202.2 11.5 201 21.6
2011-07-20 15:14:43 51°21.965 2°54.633 200.5 11.5 198 20.9
2011-07-20 15:15:43 51°21.784 2°54.539 202.3 11.3 200 20
2011-07-20 15:16:43 51°21.607 2°54.426 203.1 11.6 202 20.1
2011-07-20 15:17:43 51°21.429 2°54.325 199 11.4 196 20
2011-07-20 15:18:43 51°21.249 2°54.234 200.4 11.3 198 19.9
2011-07-20 15:19:43 51°21.072 2°54.131 202.3 11.3 201 19.7
2011-07-20 15:20:43 51°20.897 2°54.019 202.4 11.3 200 19.5
2011-07-20 15:21:42 51°20.718 2°53.931 198.6 11.6 197 19.5
2011-07-20 15:22:43 51°20.538 2°53.823 203.3 11.5 201 19.3
2011-07-20 15:23:41 51°20.368 2°53.718 201.1 11.5 199 19.2
2011-07-20 15:24:42 51°20.183 2°53.627 200.4 11.4 199 18.6
2011-07-20 15:25:43 51°20.002 2°53.521 202.4 11.5 201 18.4
2011-07-20 15:26:42 51°19.826 2°53.423 201.9 11.5 200 17.8
2011-07-20 15:27:43 51°19.645 2°53.319 201.2 11.4 199 17
2011-07-20 15:28:43 51°19.464 2°53.233 201.1 11.3 198 16.5
2011-07-20 15:29:43 51°19.286 2°53.127 203.3 11.3 202 15.9
2011-07-20 15:30:43 51°19.106 2°53.037 199.2 11.4 199 15.4
2011-07-20 15:31:42 51°18.93 2°52.941 202.2 11.3 199 14.8
2011-07-20 15:32:43 51°18.745 2°52.851 197.1 11.6 193 14.7
2011-07-20 15:33:43 51°18.562 2°52.761 202.4 11.3 199 14.3
2011-07-20 15:34:42 51°18.381 2°52.677 198.8 11.5 196 14
2011-07-20 15:35:43 51°18.196 2°52.576 200.5 11.6 199 13.8
2011-07-20 15:36:43 51°18.009 2°52.508 194.6 11.5 190 13.6
2011-07-20 15:37:43 51°17.821 2°52.439 198 11.6 196 13.4
2011-07-20 15:38:43 51°17.629 2°52.441 178 11.8 174 13.4
2011-07-20 15:39:43 51°17.434 2°52.478 177.7 12 173 13.4
2011-07-20 15:40:42 51°17.247 2°52.559 159.8 12.2 154 13.1
2011-07-20 15:41:42 51°17.061 2°52.695 162.4 12.3 158 13
2011-07-20 15:42:43 51°16.867 2°52.81 165.4 11.9 160 12.2
2011-07-20 15:43:42 51°16.683 2°52.944 161.5 12.4 156 14.2
2011-07-20 15:44:42 51°16.493 2°53.07 161.7 12.4 154 14.8
2011-07-20 15:45:43 51°16.304 2°53.215 164.6 12.4 159 14.9
2011-07-20 15:46:42 51°16.116 2°53.324 164.9 12.2 159 14.7
2011-07-20 15:47:43 51°15.924 2°53.453 163.4 12.3 158 14.5
2011-07-20 15:48:42 51°15.741 2°53.595 154.8 12.6 149 15.2
2011-07-20 15:49:42 51°15.559 2°53.763 156.9 12.5 151 15.2
2011-07-20 15:50:42 51°15.383 2°53.942 149.2 12.7 145 15.3
2011-07-20 15:51:42 51°15.214 2°54.145 146.3 12.7 141 15
2011-07-20 15:52:42 51°15.054 2°54.366 140.6 12.9 137 14.8
2011-07-20 15:53:42 51°14.9 2°54.6 143.5 12.6 139 15
2011-07-20 15:54:42 51°14.739 2°54.818 150.4 12.7 144 14.6
2011-07-20 15:55:42 51°14.567 2°54.992 157.6 12.2 152 14.9
2011-07-20 15:56:43 51°14.388 2°55.128 147 11.4 148 13.6
2011-07-20 15:57:42 51°14.25 2°55.285 141.9 8.9 142 13.4
2011-07-20 15:58:43 51°14.134 2°55.405 151.9 8.1 152 14.1
2011-07-20 15:59:42 51°14.014 2°55.498 154 8.1 154 14.1
2011-07-20 16:00:42 51°13.91 2°55.573 156.6 6.4 156 14.2
2011-07-20 16:01:42 51°13.812 2°55.645 152.7 6.5 152 14
2011-07-20 16:02:42 51°13.737 2°55.739 133 5.2 133 14.2
2011-07-20 16:03:43 51°13.689 2°55.837 123.9 4.2 124 13.1
2011-07-20 16:04:42 51°13.655 2°55.929 114.4 3.8 114 13.9
2011-07-20 16:05:43 51°13.638 2°56.008 110.4 1.4 113 10.3
2011-07-20 16:06:42 51°13.636 2°56.018 129.3 0.2 35 9.9